sensor_id;sensor_type;location;lat;lon;timestamp;P1;durP1;ratioP1;P2;durP2;ratioP2
58384;SDS011;44185;47.844;8.966;2023-03-07T00:00:02;11.85;;;4.55;;
58384;SDS011;44185;47.844;8.966;2023-03-07T00:02:29;12.57;;;5.20;;
58384;SDS011;44185;47.844;8.966;2023-03-07T00:04:54;8.15;;;3.67;;
58384;SDS011;44185;47.844;8.966;2023-03-07T00:07:21;5.15;;;2.53;;
58384;SDS011;44185;47.844;8.966;2023-03-07T00:09:46;10.73;;;4.25;;
58384;SDS011;44185;47.844;8.966;2023-03-07T00:12:12;10.85;;;5.15;;
58384;SDS011;44185;47.844;8.966;2023-03-07T00:14:37;10.60;;;5.45;;
58384;SDS011;44185;47.844;8.966;2023-03-07T00:17:03;12.73;;;4.97;;
58384;SDS011;44185;47.844;8.966;2023-03-07T00:19:29;13.35;;;6.03;;
58384;SDS011;44185;47.844;8.966;2023-03-07T00:21:54;10.25;;;4.35;;
58384;SDS011;44185;47.844;8.966;2023-03-07T00:24:21;13.77;;;5.30;;
58384;SDS011;44185;47.844;8.966;2023-03-07T00:26:47;12.50;;;6.30;;
58384;SDS011;44185;47.844;8.966;2023-03-07T00:29:12;12.75;;;6.13;;
58384;SDS011;44185;47.844;8.966;2023-03-07T00:31:37;13.20;;;5.65;;
58384;SDS011;44185;47.844;8.966;2023-03-07T00:34:03;15.10;;;6.03;;
58384;SDS011;44185;47.844;8.966;2023-03-07T00:36:29;13.88;;;4.93;;
58384;SDS011;44185;47.844;8.966;2023-03-07T00:38:55;12.48;;;5.82;;
58384;SDS011;44185;47.844;8.966;2023-03-07T00:41:22;11.82;;;5.15;;
58384;SDS011;44185;47.844;8.966;2023-03-07T00:43:49;13.80;;;5.50;;
58384;SDS011;44185;47.844;8.966;2023-03-07T00:46:16;15.52;;;5.25;;
58384;SDS011;44185;47.844;8.966;2023-03-07T00:48:42;11.95;;;4.88;;
58384;SDS011;44185;47.844;8.966;2023-03-07T00:51:09;11.63;;;5.25;;
58384;SDS011;44185;47.844;8.966;2023-03-07T00:53:36;12.65;;;5.30;;
58384;SDS011;44185;47.844;8.966;2023-03-07T00:56:02;10.98;;;4.75;;
58384;SDS011;44185;47.844;8.966;2023-03-07T00:58:31;8.73;;;4.32;;
58384;SDS011;44185;47.844;8.966;2023-03-07T01:00:59;13.60;;;5.83;;
58384;SDS011;44185;47.844;8.966;2023-03-07T01:03:25;10.77;;;4.88;;
58384;SDS011;44185;47.844;8.966;2023-03-07T01:05:51;8.43;;;4.38;;
58384;SDS011;44185;47.844;8.966;2023-03-07T01:08:17;11.35;;;4.95;;
58384;SDS011;44185;47.844;8.966;2023-03-07T01:10:43;12.13;;;5.45;;
58384;SDS011;44185;47.844;8.966;2023-03-07T01:13:09;9.20;;;4.07;;
58384;SDS011;44185;47.844;8.966;2023-03-07T01:15:37;15.90;;;5.85;;
58384;SDS011;44185;47.844;8.966;2023-03-07T01:18:03;14.52;;;5.85;;
58384;SDS011;44185;47.844;8.966;2023-03-07T01:20:29;5.97;;;3.80;;
58384;SDS011;44185;47.844;8.966;2023-03-07T01:22:54;12.38;;;4.57;;
58384;SDS011;44185;47.844;8.966;2023-03-07T01:25:20;10.73;;;4.70;;
58384;SDS011;44185;47.844;8.966;2023-03-07T01:27:45;11.80;;;5.53;;
58384;SDS011;44185;47.844;8.966;2023-03-07T01:30:11;11.52;;;5.00;;
58384;SDS011;44185;47.844;8.966;2023-03-07T01:32:38;11.98;;;5.13;;
58384;SDS011;44185;47.844;8.966;2023-03-07T01:35:04;13.77;;;5.60;;
58384;SDS011;44185;47.844;8.966;2023-03-07T01:37:30;10.63;;;4.45;;
58384;SDS011;44185;47.844;8.966;2023-03-07T01:39:55;13.60;;;6.07;;
58384;SDS011;44185;47.844;8.966;2023-03-07T01:42:20;12.57;;;5.43;;
58384;SDS011;44185;47.844;8.966;2023-03-07T01:45:00;12.93;;;5.45;;
58384;SDS011;44185;47.844;8.966;2023-03-07T01:47:27;13.70;;;6.13;;
58384;SDS011;44185;47.844;8.966;2023-03-07T01:49:54;16.58;;;6.65;;
58384;SDS011;44185;47.844;8.966;2023-03-07T01:52:22;10.93;;;4.67;;
58384;SDS011;44185;47.844;8.966;2023-03-07T01:54:53;13.10;;;5.72;;
58384;SDS011;44185;47.844;8.966;2023-03-07T01:57:23;10.38;;;4.75;;
58384;SDS011;44185;47.844;8.966;2023-03-07T01:59:53;14.20;;;6.03;;
58384;SDS011;44185;47.844;8.966;2023-03-07T02:02:21;14.57;;;7.03;;
58384;SDS011;44185;47.844;8.966;2023-03-07T02:04:50;16.45;;;6.30;;
58384;SDS011;44185;47.844;8.966;2023-03-07T02:07:20;16.73;;;7.22;;
58384;SDS011;44185;47.844;8.966;2023-03-07T02:09:49;17.17;;;6.75;;
58384;SDS011;44185;47.844;8.966;2023-03-07T02:12:16;12.32;;;5.32;;
58384;SDS011;44185;47.844;8.966;2023-03-07T02:14:42;13.55;;;5.07;;
58384;SDS011;44185;47.844;8.966;2023-03-07T02:17:09;13.48;;;5.88;;
58384;SDS011;44185;47.844;8.966;2023-03-07T02:19:39;13.13;;;5.30;;
58384;SDS011;44185;47.844;8.966;2023-03-07T02:22:14;17.95;;;5.93;;
58384;SDS011;44185;47.844;8.966;2023-03-07T02:24:44;13.05;;;5.63;;
58384;SDS011;44185;47.844;8.966;2023-03-07T02:27:16;11.90;;;4.85;;
58384;SDS011;44185;47.844;8.966;2023-03-07T02:29:41;13.77;;;5.47;;
58384;SDS011;44185;47.844;8.966;2023-03-07T02:32:07;11.18;;;5.10;;
58384;SDS011;44185;47.844;8.966;2023-03-07T02:34:33;12.52;;;5.03;;
58384;SDS011;44185;47.844;8.966;2023-03-07T02:37:00;13.52;;;5.32;;
58384;SDS011;44185;47.844;8.966;2023-03-07T02:39:29;11.93;;;6.00;;
58384;SDS011;44185;47.844;8.966;2023-03-07T02:41:55;6.65;;;3.63;;
58384;SDS011;44185;47.844;8.966;2023-03-07T02:44:26;15.13;;;6.00;;
58384;SDS011;44185;47.844;8.966;2023-03-07T02:46:51;13.93;;;6.05;;
58384;SDS011;44185;47.844;8.966;2023-03-07T02:49:16;14.20;;;5.80;;
58384;SDS011;44185;47.844;8.966;2023-03-07T02:51:42;12.50;;;4.80;;
58384;SDS011;44185;47.844;8.966;2023-03-07T02:54:08;6.97;;;3.33;;
58384;SDS011;44185;47.844;8.966;2023-03-07T02:56:34;8.07;;;3.17;;
58384;SDS011;44185;47.844;8.966;2023-03-07T02:58:59;11.98;;;4.85;;
58384;SDS011;44185;47.844;8.966;2023-03-07T03:01:26;13.32;;;5.72;;
58384;SDS011;44185;47.844;8.966;2023-03-07T03:03:51;15.15;;;5.47;;
58384;SDS011;44185;47.844;8.966;2023-03-07T03:06:17;8.20;;;4.03;;
58384;SDS011;44185;47.844;8.966;2023-03-07T03:08:42;11.93;;;4.97;;
58384;SDS011;44185;47.844;8.966;2023-03-07T03:11:08;11.48;;;4.65;;
58384;SDS011;44185;47.844;8.966;2023-03-07T03:13:33;9.10;;;4.15;;
58384;SDS011;44185;47.844;8.966;2023-03-07T03:15:59;14.75;;;5.30;;
58384;SDS011;44185;47.844;8.966;2023-03-07T03:18:27;17.80;;;6.60;;
58384;SDS011;44185;47.844;8.966;2023-03-07T03:20:52;8.55;;;4.40;;
58384;SDS011;44185;47.844;8.966;2023-03-07T03:23:18;8.18;;;3.88;;
58384;SDS011;44185;47.844;8.966;2023-03-07T03:25:44;12.85;;;5.10;;
58384;SDS011;44185;47.844;8.966;2023-03-07T03:28:09;14.13;;;5.20;;
58384;SDS011;44185;47.844;8.966;2023-03-07T03:30:35;9.40;;;4.75;;
58384;SDS011;44185;47.844;8.966;2023-03-07T03:33:00;11.48;;;4.90;;
58384;SDS011;44185;47.844;8.966;2023-03-07T03:35:27;8.82;;;4.13;;
58384;SDS011;44185;47.844;8.966;2023-03-07T03:37:53;10.98;;;4.97;;
58384;SDS011;44185;47.844;8.966;2023-03-07T03:40:18;15.23;;;5.78;;
58384;SDS011;44185;47.844;8.966;2023-03-07T03:42:44;5.40;;;3.00;;
58384;SDS011;44185;47.844;8.966;2023-03-07T03:45:10;15.13;;;6.43;;
58384;SDS011;44185;47.844;8.966;2023-03-07T03:47:36;11.90;;;5.05;;
58384;SDS011;44185;47.844;8.966;2023-03-07T03:50:01;14.38;;;5.22;;
58384;SDS011;44185;47.844;8.966;2023-03-07T03:52:29;10.30;;;4.32;;
58384;SDS011;44185;47.844;8.966;2023-03-07T03:54:54;10.75;;;4.40;;
58384;SDS011;44185;47.844;8.966;2023-03-07T03:57:20;13.95;;;5.80;;
58384;SDS011;44185;47.844;8.966;2023-03-07T03:59:45;8.98;;;3.75;;
58384;SDS011;44185;47.844;8.966;2023-03-07T04:02:11;11.15;;;4.70;;
58384;SDS011;44185;47.844;8.966;2023-03-07T04:04:36;8.63;;;3.75;;
58384;SDS011;44185;47.844;8.966;2023-03-07T04:07:02;11.02;;;5.32;;
58384;SDS011;44185;47.844;8.966;2023-03-07T04:09:29;15.30;;;5.30;;
58384;SDS011;44185;47.844;8.966;2023-03-07T04:11:54;11.45;;;4.85;;
58384;SDS011;44185;47.844;8.966;2023-03-07T04:14:20;14.52;;;5.10;;
58384;SDS011;44185;47.844;8.966;2023-03-07T04:16:45;10.68;;;4.55;;
58384;SDS011;44185;47.844;8.966;2023-03-07T04:19:11;14.45;;;5.63;;
58384;SDS011;44185;47.844;8.966;2023-03-07T04:21:36;12.43;;;5.45;;
58384;SDS011;44185;47.844;8.966;2023-03-07T04:24:02;14.02;;;5.75;;
58384;SDS011;44185;47.844;8.966;2023-03-07T04:26:29;14.23;;;5.68;;
58384;SDS011;44185;47.844;8.966;2023-03-07T04:28:54;13.77;;;5.90;;
58384;SDS011;44185;47.844;8.966;2023-03-07T04:31:20;15.00;;;6.38;;
58384;SDS011;44185;47.844;8.966;2023-03-07T04:33:47;13.27;;;5.68;;
58384;SDS011;44185;47.844;8.966;2023-03-07T04:36:14;13.80;;;5.22;;
58384;SDS011;44185;47.844;8.966;2023-03-07T04:38:40;12.18;;;5.38;;
58384;SDS011;44185;47.844;8.966;2023-03-07T04:41:05;15.48;;;5.53;;
58384;SDS011;44185;47.844;8.966;2023-03-07T04:43:33;15.68;;;5.90;;
58384;SDS011;44185;47.844;8.966;2023-03-07T04:45:58;16.50;;;6.05;;
58384;SDS011;44185;47.844;8.966;2023-03-07T04:48:24;15.75;;;6.38;;
58384;SDS011;44185;47.844;8.966;2023-03-07T04:50:49;15.00;;;6.30;;
58384;SDS011;44185;47.844;8.966;2023-03-07T04:53:16;14.73;;;5.75;;
58384;SDS011;44185;47.844;8.966;2023-03-07T04:55:41;12.80;;;5.43;;
58384;SDS011;44185;47.844;8.966;2023-03-07T04:58:07;16.17;;;6.10;;
58384;SDS011;44185;47.844;8.966;2023-03-07T05:00:34;14.77;;;5.47;;
58384;SDS011;44185;47.844;8.966;2023-03-07T05:02:59;12.02;;;5.30;;
58384;SDS011;44185;47.844;8.966;2023-03-07T05:05:24;12.74;;;5.44;;
58384;SDS011;44185;47.844;8.966;2023-03-07T05:07:50;13.00;;;5.70;;
58384;SDS011;44185;47.844;8.966;2023-03-07T05:10:15;13.75;;;5.70;;
58384;SDS011;44185;47.844;8.966;2023-03-07T05:12:41;14.50;;;6.15;;
58384;SDS011;44185;47.844;8.966;2023-03-07T05:15:07;14.50;;;5.85;;
58384;SDS011;44185;47.844;8.966;2023-03-07T05:17:35;14.07;;;6.60;;
58384;SDS011;44185;47.844;8.966;2023-03-07T05:20:00;17.50;;;6.93;;
58384;SDS011;44185;47.844;8.966;2023-03-07T05:22:26;15.70;;;6.82;;
58384;SDS011;44185;47.844;8.966;2023-03-07T05:24:51;18.83;;;7.35;;
58384;SDS011;44185;47.844;8.966;2023-03-07T05:27:17;18.58;;;7.60;;
58384;SDS011;44185;47.844;8.966;2023-03-07T05:29:42;20.02;;;8.90;;
58384;SDS011;44185;47.844;8.966;2023-03-07T05:32:08;18.40;;;7.93;;
58384;SDS011;44185;47.844;8.966;2023-03-07T05:34:35;16.55;;;7.00;;
58384;SDS011;44185;47.844;8.966;2023-03-07T05:37:00;15.38;;;6.30;;
58384;SDS011;44185;47.844;8.966;2023-03-07T05:39:26;18.10;;;6.85;;
58384;SDS011;44185;47.844;8.966;2023-03-07T05:41:51;13.43;;;6.32;;
58384;SDS011;44185;47.844;8.966;2023-03-07T05:44:17;19.17;;;8.35;;
58384;SDS011;44185;47.844;8.966;2023-03-07T05:46:43;15.85;;;7.32;;
58384;SDS011;44185;47.844;8.966;2023-03-07T05:49:08;14.34;;;7.20;;
58384;SDS011;44185;47.844;8.966;2023-03-07T05:51:35;16.38;;;7.38;;
58384;SDS011;44185;47.844;8.966;2023-03-07T05:54:01;15.50;;;6.78;;
58384;SDS011;44185;47.844;8.966;2023-03-07T05:56:26;16.55;;;7.40;;
58384;SDS011;44185;47.844;8.966;2023-03-07T05:58:52;14.93;;;7.18;;
58384;SDS011;44185;47.844;8.966;2023-03-07T06:01:17;16.88;;;6.22;;
58384;SDS011;44185;47.844;8.966;2023-03-07T06:03:43;15.40;;;6.25;;
58384;SDS011;44185;47.844;8.966;2023-03-07T06:06:08;15.30;;;6.55;;
58384;SDS011;44185;47.844;8.966;2023-03-07T06:08:35;16.40;;;6.70;;
58384;SDS011;44185;47.844;8.966;2023-03-07T06:11:01;17.77;;;7.18;;
58384;SDS011;44185;47.844;8.966;2023-03-07T06:13:26;15.88;;;7.00;;
58384;SDS011;44185;47.844;8.966;2023-03-07T06:15:52;15.35;;;6.90;;
58384;SDS011;44185;47.844;8.966;2023-03-07T06:18:19;14.48;;;6.20;;
58384;SDS011;44185;47.844;8.966;2023-03-07T06:20:52;14.45;;;7.05;;
58384;SDS011;44185;47.844;8.966;2023-03-07T06:23:18;14.90;;;6.88;;
58384;SDS011;44185;47.844;8.966;2023-03-07T06:25:45;17.05;;;6.22;;
58384;SDS011;44185;47.844;8.966;2023-03-07T06:28:11;14.82;;;6.25;;
58384;SDS011;44185;47.844;8.966;2023-03-07T06:30:36;14.93;;;6.30;;
58384;SDS011;44185;47.844;8.966;2023-03-07T06:33:02;15.90;;;6.75;;
58384;SDS011;44185;47.844;8.966;2023-03-07T06:35:27;14.18;;;6.45;;
58384;SDS011;44185;47.844;8.966;2023-03-07T06:37:52;15.78;;;6.58;;
58384;SDS011;44185;47.844;8.966;2023-03-07T06:40:18;260.77;;;128.98;;
58384;SDS011;44185;47.844;8.966;2023-03-07T06:42:45;329.30;;;169.80;;
58384;SDS011;44185;47.844;8.966;2023-03-07T06:45:11;84.65;;;47.63;;
58384;SDS011;44185;47.844;8.966;2023-03-07T06:47:36;24.77;;;13.23;;
58384;SDS011;44185;47.844;8.966;2023-03-07T06:50:02;20.33;;;10.50;;
58384;SDS011;44185;47.844;8.966;2023-03-07T06:52:28;33.85;;;23.17;;
58384;SDS011;44185;47.844;8.966;2023-03-07T06:54:53;47.15;;;33.30;;
58384;SDS011;44185;47.844;8.966;2023-03-07T06:57:19;10.00;;;4.18;;
58384;SDS011;44185;47.844;8.966;2023-03-07T06:59:45;12.13;;;4.78;;
58384;SDS011;44185;47.844;8.966;2023-03-07T07:02:11;13.57;;;5.40;;
58384;SDS011;44185;47.844;8.966;2023-03-07T07:04:38;14.25;;;5.75;;
58384;SDS011;44185;47.844;8.966;2023-03-07T07:07:03;17.05;;;7.00;;
58384;SDS011;44185;47.844;8.966;2023-03-07T07:09:29;14.98;;;6.80;;
58384;SDS011;44185;47.844;8.966;2023-03-07T07:11:54;12.20;;;5.20;;
58384;SDS011;44185;47.844;8.966;2023-03-07T07:14:20;16.67;;;6.07;;
58384;SDS011;44185;47.844;8.966;2023-03-07T07:16:47;17.17;;;5.30;;
58384;SDS011;44185;47.844;8.966;2023-03-07T07:19:12;13.63;;;5.60;;
58384;SDS011;44185;47.844;8.966;2023-03-07T07:21:37;13.85;;;6.55;;
58384;SDS011;44185;47.844;8.966;2023-03-07T07:24:03;14.35;;;5.68;;
58384;SDS011;44185;47.844;8.966;2023-03-07T07:26:29;11.95;;;5.55;;
58384;SDS011;44185;47.844;8.966;2023-03-07T07:28:54;14.82;;;5.78;;
58384;SDS011;44185;47.844;8.966;2023-03-07T07:31:20;13.65;;;6.15;;
58384;SDS011;44185;47.844;8.966;2023-03-07T07:33:47;8.95;;;4.80;;
58384;SDS011;44185;47.844;8.966;2023-03-07T07:36:12;10.20;;;4.78;;
58384;SDS011;44185;47.844;8.966;2023-03-07T07:38:38;12.00;;;4.90;;
58384;SDS011;44185;47.844;8.966;2023-03-07T07:41:04;11.38;;;4.43;;
58384;SDS011;44185;47.844;8.966;2023-03-07T07:43:29;12.02;;;5.40;;
58384;SDS011;44185;47.844;8.966;2023-03-07T07:45:55;13.23;;;5.10;;
58384;SDS011;44185;47.844;8.966;2023-03-07T07:48:20;19.13;;;5.78;;
58384;SDS011;44185;47.844;8.966;2023-03-07T07:50:47;12.98;;;4.25;;
58384;SDS011;44185;47.844;8.966;2023-03-07T07:53:15;12.73;;;5.43;;
58384;SDS011;44185;47.844;8.966;2023-03-07T07:55:41;14.52;;;5.70;;
58384;SDS011;44185;47.844;8.966;2023-03-07T07:58:06;10.70;;;5.15;;
58384;SDS011;44185;47.844;8.966;2023-03-07T08:00:32;9.52;;;4.43;;
58384;SDS011;44185;47.844;8.966;2023-03-07T08:02:57;8.80;;;4.22;;
58384;SDS011;44185;47.844;8.966;2023-03-07T08:05:23;9.95;;;4.88;;
58384;SDS011;44185;47.844;8.966;2023-03-07T08:07:50;12.85;;;5.07;;
58384;SDS011;44185;47.844;8.966;2023-03-07T08:10:15;11.57;;;4.55;;
58384;SDS011;44185;47.844;8.966;2023-03-07T08:12:42;7.88;;;4.03;;
58384;SDS011;44185;47.844;8.966;2023-03-07T08:15:08;14.68;;;5.78;;
58384;SDS011;44185;47.844;8.966;2023-03-07T08:17:34;12.40;;;4.85;;
58384;SDS011;44185;47.844;8.966;2023-03-07T08:19:59;13.75;;;5.57;;
58384;SDS011;44185;47.844;8.966;2023-03-07T08:22:24;13.35;;;5.78;;
58384;SDS011;44185;47.844;8.966;2023-03-07T08:24:51;12.52;;;4.90;;
58384;SDS011;44185;47.844;8.966;2023-03-07T08:27:17;11.32;;;4.88;;
58384;SDS011;44185;47.844;8.966;2023-03-07T08:29:46;9.88;;;4.43;;
58384;SDS011;44185;47.844;8.966;2023-03-07T08:32:13;11.95;;;4.50;;
58384;SDS011;44185;47.844;8.966;2023-03-07T08:34:38;18.35;;;7.97;;
58384;SDS011;44185;47.844;8.966;2023-03-07T08:37:03;13.00;;;5.25;;
58384;SDS011;44185;47.844;8.966;2023-03-07T08:39:29;10.30;;;4.90;;
58384;SDS011;44185;47.844;8.966;2023-03-07T08:41:56;12.23;;;4.60;;
58384;SDS011;44185;47.844;8.966;2023-03-07T08:44:21;7.22;;;3.10;;
58384;SDS011;44185;47.844;8.966;2023-03-07T08:46:47;8.55;;;4.03;;
58384;SDS011;44185;47.844;8.966;2023-03-07T08:49:12;8.88;;;4.25;;
58384;SDS011;44185;47.844;8.966;2023-03-07T08:51:37;11.18;;;4.72;;
58384;SDS011;44185;47.844;8.966;2023-03-07T08:54:03;13.38;;;5.03;;
58384;SDS011;44185;47.844;8.966;2023-03-07T08:56:29;12.10;;;5.32;;
58384;SDS011;44185;47.844;8.966;2023-03-07T08:58:56;8.15;;;3.80;;
58384;SDS011;44185;47.844;8.966;2023-03-07T09:01:21;9.45;;;4.60;;
58384;SDS011;44185;47.844;8.966;2023-03-07T09:03:46;8.45;;;3.67;;
58384;SDS011;44185;47.844;8.966;2023-03-07T09:06:14;10.10;;;4.65;;
58384;SDS011;44185;47.844;8.966;2023-03-07T09:08:40;8.75;;;4.18;;
58384;SDS011;44185;47.844;8.966;2023-03-07T09:11:06;4.97;;;2.10;;
58384;SDS011;44185;47.844;8.966;2023-03-07T09:13:31;8.93;;;4.00;;
58384;SDS011;44185;47.844;8.966;2023-03-07T09:15:58;7.22;;;3.90;;
58384;SDS011;44185;47.844;8.966;2023-03-07T09:18:23;10.85;;;4.65;;
58384;SDS011;44185;47.844;8.966;2023-03-07T09:20:49;7.20;;;3.47;;
58384;SDS011;44185;47.844;8.966;2023-03-07T09:23:14;7.97;;;3.10;;
58384;SDS011;44185;47.844;8.966;2023-03-07T09:25:40;9.85;;;4.20;;
58384;SDS011;44185;47.844;8.966;2023-03-07T09:28:05;10.85;;;4.78;;
58384;SDS011;44185;47.844;8.966;2023-03-07T09:30:31;14.98;;;5.85;;
58384;SDS011;44185;47.844;8.966;2023-03-07T09:32:58;7.78;;;4.32;;
58384;SDS011;44185;47.844;8.966;2023-03-07T09:35:23;20.70;;;7.90;;
58384;SDS011;44185;47.844;8.966;2023-03-07T09:37:49;16.73;;;5.35;;
58384;SDS011;44185;47.844;8.966;2023-03-07T09:40:15;13.35;;;5.57;;
58384;SDS011;44185;47.844;8.966;2023-03-07T09:42:44;15.90;;;5.10;;
58384;SDS011;44185;47.844;8.966;2023-03-07T09:45:20;12.27;;;4.70;;
58384;SDS011;44185;47.844;8.966;2023-03-07T09:50:48;9.50;;;4.38;;
58384;SDS011;44185;47.844;8.966;2023-03-07T09:53:18;13.45;;;5.65;;
58384;SDS011;44185;47.844;8.966;2023-03-07T09:55:48;12.75;;;5.30;;
58384;SDS011;44185;47.844;8.966;2023-03-07T09:58:18;11.75;;;4.93;;
58384;SDS011;44185;47.844;8.966;2023-03-07T10:00:49;14.15;;;5.07;;
58384;SDS011;44185;47.844;8.966;2023-03-07T10:03:25;10.02;;;4.80;;
58384;SDS011;44185;47.844;8.966;2023-03-07T10:05:57;13.18;;;5.20;;
58384;SDS011;44185;47.844;8.966;2023-03-07T10:10:55;10.00;;;3.95;;
58384;SDS011;44185;47.844;8.966;2023-03-07T10:13:31;12.75;;;4.85;;
58384;SDS011;44185;47.844;8.966;2023-03-07T10:16:09;10.48;;;4.10;;
58384;SDS011;44185;47.844;8.966;2023-03-07T10:18:49;13.40;;;5.13;;
58384;SDS011;44185;47.844;8.966;2023-03-07T10:21:27;11.48;;;4.82;;
58384;SDS011;44185;47.844;8.966;2023-03-07T10:24:05;11.40;;;4.85;;
58384;SDS011;44185;47.844;8.966;2023-03-07T10:27:01;9.18;;;3.80;;
58384;SDS011;44185;47.844;8.966;2023-03-07T10:29:31;11.23;;;4.33;;
58384;SDS011;44185;47.844;8.966;2023-03-07T10:32:09;9.97;;;4.53;;
58384;SDS011;44185;47.844;8.966;2023-03-07T10:34:43;11.73;;;4.10;;
58384;SDS011;44185;47.844;8.966;2023-03-07T10:37:11;11.80;;;4.80;;
58384;SDS011;44185;47.844;8.966;2023-03-07T10:39:42;11.27;;;4.70;;
58384;SDS011;44185;47.844;8.966;2023-03-07T10:42:11;8.85;;;4.35;;
58384;SDS011;44185;47.844;8.966;2023-03-07T10:44:37;11.30;;;4.80;;
58384;SDS011;44185;47.844;8.966;2023-03-07T10:47:04;9.63;;;4.22;;
58384;SDS011;44185;47.844;8.966;2023-03-07T10:49:30;11.63;;;5.32;;
58384;SDS011;44185;47.844;8.966;2023-03-07T10:52:01;11.93;;;4.68;;
58384;SDS011;44185;47.844;8.966;2023-03-07T10:54:30;6.45;;;3.60;;
58384;SDS011;44185;47.844;8.966;2023-03-07T10:57:03;12.65;;;5.43;;
58384;SDS011;44185;47.844;8.966;2023-03-07T10:59:33;11.73;;;5.10;;
58384;SDS011;44185;47.844;8.966;2023-03-07T11:02:00;13.75;;;5.68;;
58384;SDS011;44185;47.844;8.966;2023-03-07T11:04:27;12.05;;;4.82;;
58384;SDS011;44185;47.844;8.966;2023-03-07T11:06:53;11.27;;;5.00;;
58384;SDS011;44185;47.844;8.966;2023-03-07T11:09:22;17.88;;;6.78;;
58384;SDS011;44185;47.844;8.966;2023-03-07T11:11:52;13.98;;;5.35;;
58384;SDS011;44185;47.844;8.966;2023-03-07T11:14:20;15.02;;;5.35;;
58384;SDS011;44185;47.844;8.966;2023-03-07T11:16:50;16.38;;;6.38;;
58384;SDS011;44185;47.844;8.966;2023-03-07T11:19:23;6.47;;;3.55;;
58384;SDS011;44185;47.844;8.966;2023-03-07T11:22:02;12.75;;;5.50;;
58384;SDS011;44185;47.844;8.966;2023-03-07T11:24:31;14.02;;;6.05;;
58384;SDS011;44185;47.844;8.966;2023-03-07T11:27:00;13.02;;;5.68;;
58384;SDS011;44185;47.844;8.966;2023-03-07T11:29:26;11.45;;;5.55;;
58384;SDS011;44185;47.844;8.966;2023-03-07T11:31:53;13.68;;;5.53;;
58384;SDS011;44185;47.844;8.966;2023-03-07T11:34:30;10.13;;;5.25;;
58384;SDS011;44185;47.844;8.966;2023-03-07T11:37:02;9.23;;;4.13;;
58384;SDS011;44185;47.844;8.966;2023-03-07T11:42:14;12.77;;;4.80;;
58384;SDS011;44185;47.844;8.966;2023-03-07T11:44:45;12.07;;;5.15;;
58384;SDS011;44185;47.844;8.966;2023-03-07T11:47:25;14.75;;;5.70;;
58384;SDS011;44185;47.844;8.966;2023-03-07T11:50:03;11.55;;;5.03;;
58384;SDS011;44185;47.844;8.966;2023-03-07T11:52:41;11.98;;;6.03;;
58384;SDS011;44185;47.844;8.966;2023-03-07T11:55:28;13.45;;;5.57;;
58384;SDS011;44185;47.844;8.966;2023-03-07T11:58:04;9.95;;;4.28;;
58384;SDS011;44185;47.844;8.966;2023-03-07T12:00:47;12.95;;;6.35;;
58384;SDS011;44185;47.844;8.966;2023-03-07T12:03:26;8.73;;;4.63;;
58384;SDS011;44185;47.844;8.966;2023-03-07T12:09:08;8.43;;;4.53;;
58384;SDS011;44185;47.844;8.966;2023-03-07T12:11:58;10.02;;;4.68;;
58384;SDS011;44185;47.844;8.966;2023-03-07T12:14:48;10.63;;;4.32;;
58384;SDS011;44185;47.844;8.966;2023-03-07T12:17:23;11.00;;;4.63;;
58384;SDS011;44185;47.844;8.966;2023-03-07T12:20:02;12.23;;;4.88;;
58384;SDS011;44185;47.844;8.966;2023-03-07T12:22:41;13.43;;;5.18;;
58384;SDS011;44185;47.844;8.966;2023-03-07T12:25:22;8.43;;;3.70;;
58384;SDS011;44185;47.844;8.966;2023-03-07T12:27:59;14.18;;;5.68;;
58384;SDS011;44185;47.844;8.966;2023-03-07T12:30:32;10.98;;;5.07;;
58384;SDS011;44185;47.844;8.966;2023-03-07T12:33:03;13.10;;;5.72;;
58384;SDS011;44185;47.844;8.966;2023-03-07T12:35:31;10.00;;;4.95;;
58384;SDS011;44185;47.844;8.966;2023-03-07T12:38:07;12.32;;;5.35;;
58384;SDS011;44185;47.844;8.966;2023-03-07T12:40:37;13.90;;;5.15;;
58384;SDS011;44185;47.844;8.966;2023-03-07T12:43:09;9.80;;;4.22;;
58384;SDS011;44185;47.844;8.966;2023-03-07T12:45:42;12.65;;;5.85;;
58384;SDS011;44185;47.844;8.966;2023-03-07T12:48:15;14.43;;;5.50;;
58384;SDS011;44185;47.844;8.966;2023-03-07T12:50:45;10.85;;;5.40;;
58384;SDS011;44185;47.844;8.966;2023-03-07T12:53:20;14.93;;;5.68;;
58384;SDS011;44185;47.844;8.966;2023-03-07T12:55:57;16.48;;;6.18;;
58384;SDS011;44185;47.844;8.966;2023-03-07T12:58:33;13.80;;;6.07;;
58384;SDS011;44185;47.844;8.966;2023-03-07T13:01:05;13.45;;;5.68;;
58384;SDS011;44185;47.844;8.966;2023-03-07T13:03:38;14.02;;;5.57;;
58384;SDS011;44185;47.844;8.966;2023-03-07T13:06:10;12.45;;;5.40;;
58384;SDS011;44185;47.844;8.966;2023-03-07T13:08:41;12.02;;;5.40;;
58384;SDS011;44185;47.844;8.966;2023-03-07T13:11:15;13.00;;;5.47;;
58384;SDS011;44185;47.844;8.966;2023-03-07T13:13:49;8.23;;;4.57;;
58384;SDS011;44185;47.844;8.966;2023-03-07T13:40:46;14.50;;;6.00;;
58384;SDS011;44185;47.844;8.966;2023-03-07T13:43:37;13.38;;;5.68;;
58384;SDS011;44185;47.844;8.966;2023-03-07T13:46:26;12.00;;;5.22;;
58384;SDS011;44185;47.844;8.966;2023-03-07T13:49:07;15.95;;;6.25;;
58384;SDS011;44185;47.844;8.966;2023-03-07T13:51:32;12.55;;;6.03;;
58384;SDS011;44185;47.844;8.966;2023-03-07T13:53:59;14.52;;;5.38;;
58384;SDS011;44185;47.844;8.966;2023-03-07T13:56:28;9.20;;;4.33;;
58384;SDS011;44185;47.844;8.966;2023-03-07T13:58:59;7.97;;;3.75;;
58384;SDS011;44185;47.844;8.966;2023-03-07T14:01:28;9.75;;;5.03;;
58384;SDS011;44185;47.844;8.966;2023-03-07T14:03:56;12.97;;;5.67;;
58384;SDS011;44185;47.844;8.966;2023-03-07T14:06:29;15.63;;;6.53;;
58384;SDS011;44185;47.844;8.966;2023-03-07T14:08:57;7.37;;;2.67;;
58384;SDS011;44185;47.844;8.966;2023-03-07T14:11:25;14.25;;;4.95;;
58384;SDS011;44185;47.844;8.966;2023-03-07T14:14:04;9.20;;;3.55;;
58384;SDS011;44185;47.844;8.966;2023-03-07T14:16:49;11.32;;;4.82;;
58384;SDS011;44185;47.844;8.966;2023-03-07T14:19:26;11.52;;;5.25;;
58384;SDS011;44185;47.844;8.966;2023-03-07T14:22:04;9.75;;;4.60;;
58384;SDS011;44185;47.844;8.966;2023-03-07T14:24:53;8.48;;;4.50;;
58384;SDS011;44185;47.844;8.966;2023-03-07T14:27:47;12.45;;;5.32;;
58384;SDS011;44185;47.844;8.966;2023-03-07T14:30:15;14.60;;;5.97;;
58384;SDS011;44185;47.844;8.966;2023-03-07T14:32:41;10.95;;;5.30;;
58384;SDS011;44185;47.844;8.966;2023-03-07T14:35:07;10.38;;;3.95;;
58384;SDS011;44185;47.844;8.966;2023-03-07T14:37:33;15.48;;;6.38;;
58384;SDS011;44185;47.844;8.966;2023-03-07T14:43:03;13.50;;;5.38;;
58384;SDS011;44185;47.844;8.966;2023-03-07T14:45:42;11.68;;;5.22;;
58384;SDS011;44185;47.844;8.966;2023-03-07T14:48:17;12.25;;;4.90;;
58384;SDS011;44185;47.844;8.966;2023-03-07T14:51:01;17.23;;;6.13;;
58384;SDS011;44185;47.844;8.966;2023-03-07T14:53:34;10.95;;;4.60;;
58384;SDS011;44185;47.844;8.966;2023-03-07T14:56:00;9.80;;;4.05;;
58384;SDS011;44185;47.844;8.966;2023-03-07T14:58:32;12.38;;;4.55;;
58384;SDS011;44185;47.844;8.966;2023-03-07T15:01:01;9.47;;;4.27;;
58384;SDS011;44185;47.844;8.966;2023-03-07T15:03:28;14.70;;;6.18;;
58384;SDS011;44185;47.844;8.966;2023-03-07T15:05:55;10.27;;;5.35;;
58384;SDS011;44185;47.844;8.966;2023-03-07T15:08:22;11.80;;;5.28;;
58384;SDS011;44185;47.844;8.966;2023-03-07T15:10:50;6.40;;;3.95;;
58384;SDS011;44185;47.844;8.966;2023-03-07T15:13:20;13.10;;;6.00;;
58384;SDS011;44185;47.844;8.966;2023-03-07T15:15:51;13.25;;;5.82;;
58384;SDS011;44185;47.844;8.966;2023-03-07T15:18:21;14.03;;;5.10;;
58384;SDS011;44185;47.844;8.966;2023-03-07T15:20:49;10.95;;;5.68;;